createdAt,value
2022-09-07T00:01:06.826Z,12.40
2022-09-07T00:04:12.251Z,13.30
2022-09-07T00:07:17.085Z,11.60
2022-09-07T00:10:22.674Z,13.40
2022-09-07T00:13:33.786Z,13.40
2022-09-07T00:16:38.919Z,13.90
2022-09-07T00:19:44.259Z,14.40
2022-09-07T00:22:49.282Z,12.40
2022-09-07T00:25:54.359Z,13.00
2022-09-07T00:29:02.321Z,14.30
2022-09-07T00:32:07.342Z,12.90
2022-09-07T00:35:13.004Z,12.20
2022-09-07T00:38:18.060Z,11.70
2022-09-07T00:41:24.697Z,13.50
2022-09-07T00:45:03.325Z,11.70
2022-09-07T00:48:14.553Z,11.90
2022-09-07T00:51:27.372Z,12.40
2022-09-07T00:54:37.001Z,13.10
2022-09-07T00:57:48.612Z,10.80
2022-09-07T01:00:54.755Z,13.90
2022-09-07T01:04:03.061Z,13.00
2022-09-07T01:07:09.229Z,12.60
2022-09-07T01:10:15.303Z,13.30
2022-09-07T01:13:20.253Z,13.30
2022-09-07T01:16:46.797Z,13.40
2022-09-07T01:20:41.651Z,12.90
2022-09-07T01:24:32.014Z,12.60
2022-09-07T01:28:05.794Z,11.90
2022-09-07T01:31:23.981Z,13.00
2022-09-07T01:34:29.560Z,14.20
2022-09-07T01:37:57.337Z,12.10
2022-09-07T01:41:10.263Z,12.70
2022-09-07T01:44:22.840Z,11.70
2022-09-07T01:47:34.937Z,13.20
2022-09-07T01:50:47.448Z,12.80
2022-09-07T01:53:56.971Z,12.90
2022-09-07T01:57:09.034Z,15.50
2022-09-07T02:00:19.067Z,14.80
2022-09-07T02:03:31.494Z,15.10
2022-09-07T02:06:43.546Z,12.30
2022-09-07T02:09:54.582Z,14.50
2022-09-07T02:13:06.747Z,13.20
2022-09-07T02:16:18.353Z,13.50
2022-09-07T02:19:28.425Z,13.70
2022-09-07T02:22:40.105Z,14.10
2022-09-07T02:25:51.513Z,13.70
2022-09-07T02:28:57.095Z,16.10
2022-09-07T02:32:02.424Z,14.20
2022-09-07T02:35:08.991Z,12.80
2022-09-07T02:38:13.980Z,14.00
2022-09-07T02:41:34.771Z,14.70
2022-09-07T02:44:42.237Z,14.20
2022-09-07T02:48:09.321Z,13.60
2022-09-07T02:51:22.715Z,15.30
2022-09-07T02:54:48.737Z,13.80
2022-09-07T02:58:11.470Z,15.40
2022-09-07T03:01:31.996Z,15.40
2022-09-07T03:08:00.391Z,13.80
2022-09-07T03:11:08.409Z,12.70
2022-09-07T03:14:21.977Z,14.20
2022-09-07T03:17:27.228Z,13.20
2022-09-07T03:20:32.058Z,12.90
2022-09-07T03:23:37.533Z,13.90
2022-09-07T03:26:48.443Z,14.00
2022-09-07T03:29:54.101Z,15.50
2022-09-07T03:32:59.211Z,12.80
2022-09-07T03:36:04.906Z,12.90
2022-09-07T03:39:13.371Z,14.90
2022-09-07T03:42:18.704Z,13.10
2022-09-07T03:45:26.147Z,13.30
2022-09-07T03:48:32.931Z,12.90
2022-09-07T03:51:40.795Z,14.30
2022-09-07T03:54:45.797Z,14.00
2022-09-07T03:57:50.921Z,14.10
2022-09-07T04:00:56.170Z,15.30
2022-09-07T04:04:02.654Z,14.70
2022-09-07T04:07:07.773Z,13.20
2022-09-07T04:10:12.754Z,13.70
2022-09-07T04:13:17.697Z,14.40
2022-09-07T04:16:25.547Z,13.70
2022-09-07T04:19:31.497Z,13.70
2022-09-07T04:22:36.369Z,13.00
2022-09-07T04:25:50.651Z,13.70
2022-09-07T04:28:56.144Z,14.00
2022-09-07T04:32:01.204Z,15.60
2022-09-07T04:35:08.193Z,15.80
2022-09-07T04:38:16.717Z,14.40
2022-09-07T04:41:21.612Z,13.30
2022-09-07T04:44:26.712Z,12.40
2022-09-07T04:47:31.923Z,15.00
2022-09-07T04:50:36.867Z,13.60
2022-09-07T04:53:41.968Z,12.40
2022-09-07T04:56:46.852Z,13.90
2022-09-07T04:59:51.920Z,13.30
2022-09-07T05:02:57.655Z,13.20
2022-09-07T05:06:04.068Z,12.60
2022-09-07T05:09:10.267Z,12.40
2022-09-07T05:12:15.265Z,14.10
2022-09-07T05:15:20.263Z,12.00
2022-09-07T05:18:25.458Z,11.10
2022-09-07T05:21:33.278Z,13.10
2022-09-07T05:24:38.192Z,11.70
2022-09-07T05:27:43.804Z,11.40
2022-09-07T05:34:30.363Z,11.20
2022-09-07T05:37:35.978Z,13.30
2022-09-07T05:40:41.412Z,12.10
2022-09-07T05:47:12.465Z,12.10
2022-09-07T05:50:17.676Z,12.80
2022-09-07T05:53:23.329Z,11.20
2022-09-07T05:56:28.395Z,11.00
2022-09-07T05:59:33.841Z,11.70
2022-09-07T06:02:39.893Z,11.80
2022-09-07T06:05:45.489Z,14.10
2022-09-07T06:08:52.581Z,13.40
2022-09-07T06:11:58.063Z,13.00
2022-09-07T06:15:04.327Z,11.70
2022-09-07T06:18:09.324Z,12.00
2022-09-07T06:21:16.631Z,12.20
2022-09-07T06:24:21.974Z,10.40
2022-09-07T06:27:27.146Z,10.50
2022-09-07T06:30:32.548Z,10.70
2022-09-07T06:33:38.168Z,11.00
2022-09-07T06:36:43.198Z,10.70
2022-09-07T06:39:48.922Z,10.60
2022-09-07T06:42:54.619Z,14.70
2022-09-07T06:49:26.223Z,10.80
2022-09-07T06:55:57.819Z,9.40
2022-09-07T06:59:02.829Z,10.30
2022-09-07T07:02:11.083Z,10.20
2022-09-07T07:05:16.176Z,9.40
2022-09-07T07:08:23.625Z,10.70
2022-09-07T07:11:29.846Z,10.20
2022-09-07T07:14:37.427Z,9.90
2022-09-07T07:17:47.946Z,10.90
2022-09-07T07:20:54.999Z,8.70
2022-09-07T07:23:59.807Z,9.10
2022-09-07T07:27:05.157Z,8.70
2022-09-07T07:30:12.431Z,9.70
2022-09-07T07:33:17.820Z,9.60
2022-09-07T07:36:25.579Z,9.60
2022-09-07T07:42:56.025Z,8.50
2022-09-07T07:46:05.442Z,9.60
2022-09-07T07:49:11.223Z,11.00
2022-09-07T07:55:44.605Z,9.40
2022-09-07T07:58:53.432Z,12.10
2022-09-07T08:02:03.714Z,8.30
2022-09-07T08:05:10.515Z,8.10
2022-09-07T08:08:15.328Z,9.70
2022-09-07T08:11:22.729Z,9.40
2022-09-07T08:14:27.714Z,10.30
2022-09-07T08:17:36.622Z,8.10
2022-09-07T08:20:42.282Z,9.10
2022-09-07T08:23:48.210Z,9.60
2022-09-07T08:26:53.060Z,9.20
2022-09-07T08:29:58.218Z,10.10
2022-09-07T08:33:02.919Z,9.00
2022-09-07T08:36:14.442Z,8.90
2022-09-07T08:39:19.849Z,8.70
2022-09-07T08:42:56.976Z,8.60
2022-09-07T08:46:13.600Z,8.70
2022-09-07T08:49:26.582Z,9.30
2022-09-07T08:52:46.556Z,8.80
2022-09-07T08:55:58.788Z,9.20
2022-09-07T08:59:14.355Z,9.30
2022-09-07T09:02:28.261Z,9.00
2022-09-07T09:05:45.390Z,8.80
2022-09-07T09:09:08.494Z,9.70
2022-09-07T09:12:28.606Z,9.40
2022-09-07T09:15:57.050Z,9.10
2022-09-07T09:19:19.462Z,8.50
2022-09-07T09:22:27.919Z,10.20
2022-09-07T09:25:36.545Z,10.50
2022-09-07T09:28:42.192Z,9.20
2022-09-07T09:31:47.223Z,10.30
2022-09-07T09:35:04.262Z,12.20
2022-09-07T09:38:31.988Z,8.40
2022-09-07T09:41:39.917Z,11.30
2022-09-07T09:44:45.613Z,9.00
2022-09-07T09:47:54.728Z,8.00
2022-09-07T09:54:33.100Z,10.60
2022-09-07T10:01:33.572Z,7.40
2022-09-07T10:04:40.192Z,7.90
2022-09-07T10:07:54.119Z,8.70
2022-09-07T10:11:02.395Z,8.70
2022-09-07T10:14:19.252Z,8.20
2022-09-07T10:17:30.885Z,14.60
2022-09-07T10:20:38.875Z,9.90
2022-09-07T10:23:43.731Z,7.90
2022-09-07T10:26:48.769Z,8.70
2022-09-07T10:29:55.435Z,10.80
2022-09-07T10:33:08.535Z,10.10
2022-09-07T10:36:25.473Z,8.60
2022-09-07T10:39:36.566Z,13.20
2022-09-07T10:53:46.814Z,8.90
2022-09-07T10:57:06.475Z,8.80
2022-09-07T11:00:16.613Z,8.30
2022-09-07T11:03:51.604Z,8.90
2022-09-07T11:07:15.461Z,9.00
2022-09-07T11:10:39.913Z,8.80
2022-09-07T11:14:12.129Z,9.40
2022-09-07T11:17:21.780Z,9.10
2022-09-07T11:20:36.599Z,8.50
2022-09-07T11:23:49.616Z,12.10
2022-09-07T11:26:59.582Z,11.20
2022-09-07T11:30:21.230Z,8.60
2022-09-07T11:33:35.936Z,12.10
2022-09-07T11:36:57.343Z,9.40
2022-09-07T11:40:21.296Z,11.10
2022-09-07T11:43:35.595Z,9.20
2022-09-07T11:53:24.477Z,9.70
2022-09-07T11:56:36.777Z,10.80
2022-09-07T12:00:05.306Z,9.40
2022-09-07T12:03:54.465Z,10.00
2022-09-07T12:08:15.804Z,9.60
2022-09-07T12:11:54.902Z,8.60
2022-09-07T12:15:27.318Z,11.90
2022-09-07T12:19:19.010Z,9.80
2022-09-07T12:22:25.270Z,9.40
2022-09-07T12:25:43.352Z,8.80
2022-09-07T12:29:22.043Z,9.70
2022-09-07T12:33:03.876Z,8.90
2022-09-07T12:37:10.114Z,11.10
2022-09-07T12:41:00.199Z,10.70
2022-09-07T12:44:16.957Z,13.10
2022-09-07T12:47:32.346Z,11.60
2022-09-07T12:50:51.050Z,11.80
2022-09-07T12:54:07.503Z,12.60
2022-09-07T12:57:31.044Z,10.50
2022-09-07T13:00:54.243Z,10.50
2022-09-07T13:04:28.418Z,10.00
2022-09-07T13:08:08.403Z,11.50
2022-09-07T13:11:32.678Z,8.60
2022-09-07T13:14:43.819Z,9.50
2022-09-07T13:17:57.742Z,8.50
2022-09-07T13:21:36.312Z,9.20
2022-09-07T13:24:52.133Z,9.00
2022-09-07T13:28:00.481Z,10.50
2022-09-07T13:31:45.359Z,10.60
2022-09-07T13:35:06.563Z,9.40
2022-09-07T13:38:16.603Z,10.30
2022-09-07T13:41:27.250Z,9.20
2022-09-07T13:44:34.954Z,10.30
2022-09-07T13:47:56.802Z,9.60
2022-09-07T13:51:13.159Z,9.30
2022-09-07T13:54:27.043Z,9.90
2022-09-07T13:57:46.807Z,9.30
2022-09-07T14:00:54.956Z,9.80
2022-09-07T14:04:06.976Z,10.90
2022-09-07T14:07:20.568Z,8.80
2022-09-07T14:10:28.649Z,8.90
2022-09-07T14:13:33.893Z,10.20
2022-09-07T14:16:39.959Z,15.20
2022-09-07T14:19:49.299Z,9.80
2022-09-07T14:22:55.455Z,14.00
2022-09-07T14:26:18.590Z,13.00
2022-09-07T14:29:29.562Z,10.70
2022-09-07T14:32:34.750Z,11.30
2022-09-07T14:35:41.411Z,11.40
2022-09-07T14:39:04.386Z,10.40
2022-09-07T14:42:12.923Z,10.80
2022-09-07T14:45:34.179Z,12.40
2022-09-07T14:48:41.949Z,12.00
2022-09-07T14:54:57.156Z,10.90
2022-09-07T14:58:23.166Z,9.50
2022-09-07T15:01:37.587Z,11.80
2022-09-07T15:04:43.760Z,9.20
2022-09-07T15:07:51.687Z,10.80
2022-09-07T15:14:31.654Z,8.80
2022-09-07T15:17:44.827Z,12.60
2022-09-07T15:20:50.943Z,10.70
2022-09-07T15:23:59.047Z,11.70
2022-09-07T15:27:21.820Z,9.80
2022-09-07T15:30:36.530Z,9.90
2022-09-07T15:33:42.458Z,9.90
2022-09-07T15:38:01.209Z,8.90
2022-09-07T15:44:28.124Z,8.90
2022-09-07T15:47:52.084Z,10.00
2022-09-07T15:54:39.814Z,11.90
2022-09-07T15:58:11.567Z,10.30
2022-09-07T16:04:52.860Z,10.70
2022-09-07T16:11:29.412Z,9.50
2022-09-07T16:14:35.045Z,10.40
2022-09-07T16:17:47.321Z,10.30
2022-09-07T16:20:53.478Z,10.60
2022-09-07T16:23:58.460Z,10.30
2022-09-07T16:27:03.734Z,10.10
2022-09-07T16:30:11.607Z,10.10
2022-09-07T16:33:16.722Z,11.30
2022-09-07T16:36:23.511Z,11.60
2022-09-07T16:39:29.343Z,14.30
2022-09-07T16:42:37.544Z,13.10
2022-09-07T16:49:09.520Z,10.80
2022-09-07T16:52:14.407Z,11.20
2022-09-07T16:55:19.470Z,11.30
2022-09-07T16:58:39.698Z,10.50
2022-09-07T17:01:45.133Z,12.70
2022-09-07T17:04:51.273Z,11.80
2022-09-07T17:07:57.709Z,11.20
2022-09-07T17:11:04.414Z,11.90
2022-09-07T17:14:14.585Z,13.20
2022-09-07T17:17:22.665Z,15.00
2022-09-07T17:20:28.279Z,13.80
2022-09-07T17:23:43.249Z,14.40
2022-09-07T17:26:51.177Z,13.40
2022-09-07T17:29:56.486Z,14.10
2022-09-07T17:33:01.265Z,14.20
2022-09-07T17:36:09.879Z,12.60
2022-09-07T17:39:17.143Z,11.00
2022-09-07T17:42:25.269Z,14.80
2022-09-07T17:45:30.528Z,12.50
2022-09-07T17:48:36.838Z,14.70
2022-09-07T17:51:43.225Z,11.90
2022-09-07T17:54:48.816Z,13.10
2022-09-07T17:57:53.802Z,13.60
2022-09-07T18:01:03.573Z,11.70
2022-09-07T18:04:09.087Z,12.70
2022-09-07T18:07:13.977Z,13.30
2022-09-07T18:10:19.164Z,11.90
2022-09-07T18:13:35.107Z,13.90
2022-09-07T18:16:40.990Z,12.70
2022-09-07T18:19:45.747Z,13.30
2022-09-07T18:22:53.967Z,13.10
2022-09-07T18:26:00.341Z,13.70
2022-09-07T18:29:18.698Z,15.50
2022-09-07T18:32:33.567Z,13.00
2022-09-07T18:35:46.889Z,14.60
2022-09-07T18:38:53.693Z,14.70
2022-09-07T18:41:58.570Z,15.00
2022-09-07T18:48:28.836Z,20.30
2022-09-07T18:52:51.586Z,18.80
2022-09-07T18:54:58.357Z,18.70
2022-09-07T18:58:03.299Z,16.70
2022-09-07T19:01:12.161Z,17.50
2022-09-07T19:04:17.152Z,17.70
2022-09-07T19:07:25.015Z,19.20
2022-09-07T19:10:39.608Z,18.30
2022-09-07T19:13:59.812Z,18.00
2022-09-07T19:17:06.199Z,20.70
2022-09-07T19:20:12.190Z,17.20
2022-09-07T19:23:19.259Z,18.50
2022-09-07T19:26:27.808Z,18.60
2022-09-07T19:32:45.958Z,17.30
2022-09-07T19:35:53.975Z,18.10
2022-09-07T19:38:59.402Z,18.60
2022-09-07T19:42:07.408Z,19.60
2022-09-07T19:45:14.479Z,18.80
2022-09-07T19:48:19.624Z,20.40
2022-09-07T19:51:25.066Z,19.10
2022-09-07T19:54:30.967Z,18.60
2022-09-07T19:57:36.008Z,18.80
2022-09-07T20:00:41.689Z,22.30
2022-09-07T20:03:49.610Z,19.60
2022-09-07T20:06:54.759Z,18.70
2022-09-07T20:10:01.662Z,19.40
2022-09-07T20:13:06.549Z,19.50
2022-09-07T20:16:15.133Z,20.20
2022-09-07T20:19:20.103Z,21.70
2022-09-07T20:22:25.303Z,18.50
2022-09-07T20:25:30.179Z,17.40
2022-09-07T20:28:36.355Z,18.00
2022-09-07T20:31:43.606Z,17.80
2022-09-07T20:34:51.908Z,17.80
2022-09-07T20:38:02.900Z,17.10
2022-09-07T20:52:51.733Z,17.70
2022-09-07T20:56:07.800Z,17.40
2022-09-07T20:59:13.282Z,17.00
2022-09-07T21:02:20.571Z,15.90
2022-09-07T21:05:27.914Z,16.00
2022-09-07T21:47:47.488Z,17.30
2022-09-07T21:58:24.192Z,15.30
2022-09-07T22:05:25.195Z,15.40
2022-09-07T22:08:38.584Z,15.50
2022-09-07T22:11:52.417Z,16.50
2022-09-07T22:19:19.621Z,15.50
2022-09-07T22:22:35.130Z,14.60
2022-09-07T23:54:10.757Z,10.90
2022-09-07T23:57:19.856Z,12.90
